Time;durP1;ratioP1;P1;durP2;ratioP2;P2;SDS_P1;SDS_P2;PMS_P1;PMS_P2;Temp;Humidity;BMP_temperature;BMP_pressure;BME280_temperature;BME280_humidity;BME280_pressure;Samples;Min_cycle;Max_cycle;Signal;HPM_P1;HPM_P2
2021/07/13 00:01:34;;;;;;;2.90;2.60;;;18.70;83.40;;;;;;5054276;28;20021;-71
2021/07/13 00:04:00;;;;;;;3.22;2.33;;;18.70;83.40;;;;;;5054148;28;20048;-72
2021/07/13 00:06:25;;;;;;;2.92;2.45;;;18.70;83.40;;;;;;5053145;28;20044;-71
2021/07/13 00:08:52;;;;;;;2.80;2.45;;;18.70;83.50;;;;;;5054088;28;20028;-71
2021/07/13 00:11:19;;;;;;;3.35;2.50;;;18.70;83.50;;;;;;5054130;28;20465;-72
2021/07/13 00:13:44;;;;;;;3.30;2.70;;;18.70;83.40;;;;;;5036188;28;20433;-71
2021/07/13 00:16:11;;;;;;;3.15;2.50;;;18.70;83.40;;;;;;5036121;28;20028;-71
2021/07/13 00:18:37;;;;;;;3.05;2.60;;;18.70;83.50;;;;;;5036142;28;20032;-71
2021/07/13 00:21:04;;;;;;;3.88;3.13;;;18.70;83.50;;;;;;5053158;28;20405;-71
2021/07/13 00:23:30;;;;;;;3.65;2.53;;;18.70;83.60;;;;;;5053814;28;20025;-71
2021/07/13 00:25:55;;;;;;;4.43;2.92;;;18.70;83.70;;;;;;5035951;28;20048;-72
2021/07/13 00:28:21;;;;;;;3.50;2.47;;;18.70;83.70;;;;;;5053857;28;20025;-71
2021/07/13 00:30:46;;;;;;;3.55;2.58;;;18.70;83.70;;;;;;5053724;28;20060;-71
2021/07/13 00:33:14;;;;;;;3.38;3.08;;;18.70;83.70;;;;;;5053599;28;20024;-71
2021/07/13 00:35:39;;;;;;;3.80;3.08;;;18.70;83.70;;;;;;5053139;28;20048;-71
2021/07/13 00:38:05;;;;;;;3.75;3.33;;;18.70;83.70;;;;;;5053582;28;20017;-71
2021/07/13 00:40:31;;;;;;;3.80;3.08;;;18.70;83.70;;;;;;5053620;28;20378;-71
2021/07/13 00:42:56;;;;;;;4.10;2.83;;;18.70;83.70;;;;;;5053494;28;20382;-71
2021/07/13 00:45:23;;;;;;;4.25;3.65;;;18.70;83.80;;;;;;5053302;28;20032;-72
2021/07/13 00:47:50;;;;;;;3.15;2.70;;;18.70;83.80;;;;;;5053559;28;20013;-72
2021/07/13 00:50:21;;;;;;;3.45;2.75;;;18.70;83.80;;;;;;5052940;28;20041;-71
2021/07/13 00:52:47;;;;;;;3.83;2.90;;;18.70;83.80;;;;;;5053498;28;20036;-72
2021/07/13 00:55:13;;;;;;;3.65;2.60;;;18.70;83.80;;;;;;5035261;28;20036;-71
2021/07/13 00:57:40;;;;;;;3.22;2.58;;;18.70;83.70;;;;;;5053203;28;20067;-71
2021/07/13 01:00:08;;;;;;;3.30;2.60;;;18.70;83.80;;;;;;5053170;28;20074;-72
2021/07/13 01:02:34;;;;;;;3.30;2.63;;;18.70;83.80;;;;;;5035287;28;20495;-71
2021/07/13 01:05:01;;;;;;;3.35;2.90;;;18.80;83.80;;;;;;5052933;28;20036;-72
2021/07/13 01:07:44;;;;;;;3.50;2.72;;;18.80;83.80;;;;;;5053027;28;20021;-72
2021/07/13 01:10:18;;;;;;;4.13;3.15;;;18.80;83.70;;;;;;5053070;28;20033;-71
2021/07/13 01:13:01;;;;;;;2.88;2.50;;;18.90;83.70;;;;;;5053103;28;20029;-71
2021/07/13 01:15:45;;;;;;;2.78;2.30;;;18.90;83.70;;;;;;5053045;28;20028;-71
2021/07/13 01:18:22;;;;;;;3.08;2.60;;;18.90;83.70;;;;;;5053068;28;20021;-71
2021/07/13 01:21:22;;;;;;;3.20;2.55;;;18.90;83.70;;;;;;5052865;28;20072;-71
2021/07/13 01:23:56;;;;;;;3.33;2.40;;;18.90;83.70;;;;;;5053035;28;20032;-72
2021/07/13 01:27:07;;;;;;;3.40;2.78;;;18.90;83.70;;;;;;5053074;28;20025;-72
2021/07/13 01:29:33;;;;;;;3.38;2.80;;;18.90;83.60;;;;;;5052919;28;20116;-71
2021/07/13 01:32:00;;;;;;;3.20;2.55;;;18.90;83.90;;;;;;5052895;28;20009;-71
2021/07/13 01:34:36;;;;;;;3.40;2.47;;;18.90;83.90;;;;;;5052439;28;20029;-72
2021/07/13 01:37:06;;;;;;;3.50;2.22;;;18.90;83.80;;;;;;5053036;28;20068;-71
2021/07/13 01:39:32;;;;;;;2.90;2.30;;;18.90;83.90;;;;;;5052781;28;20533;-71
2021/07/13 01:42:03;;;;;;;3.13;2.13;;;19.00;83.90;;;;;;5053011;28;20029;-72
2021/07/13 01:44:30;;;;;;;2.90;2.33;;;19.00;83.90;;;;;;5052767;28;20040;-72
2021/07/13 01:46:55;;;;;;;3.05;2.60;;;19.00;83.90;;;;;;5035005;28;20512;-71
2021/07/13 01:49:27;;;;;;;4.03;2.88;;;19.00;84.00;;;;;;5052343;28;20049;-71
2021/07/13 01:51:53;;;;;;;3.35;2.63;;;19.00;83.90;;;;;;5052639;28;20096;-71
2021/07/13 01:54:21;;;;;;;3.13;2.42;;;19.00;84.00;;;;;;5052635;28;20408;-72
2021/07/13 01:56:50;;;;;;;3.53;2.65;;;19.00;84.00;;;;;;5052662;28;20039;-72
2021/07/13 01:59:17;;;;;;;3.05;2.28;;;19.00;84.10;;;;;;5052654;28;20100;-72
2021/07/13 02:01:45;;;;;;;2.97;2.30;;;19.00;84.10;;;;;;5052681;28;20101;-71
2021/07/13 02:04:12;;;;;;;4.30;3.28;;;19.00;84.10;;;;;;5052316;28;20025;-72
2021/07/13 02:06:40;;;;;;;4.10;2.70;;;19.10;84.20;;;;;;5052542;28;20017;-72
2021/07/13 02:09:09;;;;;;;3.85;3.00;;;19.00;84.10;;;;;;5052694;28;20078;-72
2021/07/13 02:11:35;;;;;;;3.38;2.58;;;19.10;84.10;;;;;;5052598;28;20025;-72
2021/07/13 02:14:01;;;;;;;4.03;2.80;;;19.10;84.10;;;;;;5052562;28;20032;-72
2021/07/13 02:16:27;;;;;;;3.15;2.55;;;19.10;84.00;;;;;;5051925;28;20393;-72
2021/07/13 02:18:53;;;;;;;2.97;2.30;;;19.20;84.00;;;;;;5052521;28;20017;-72
2021/07/13 02:21:19;;;;;;;3.53;2.67;;;19.20;84.00;;;;;;5052401;28;20053;-72
2021/07/13 02:23:46;;;;;;;2.67;2.40;;;19.20;84.00;;;;;;5052377;28;20025;-72
2021/07/13 02:26:28;;;;;;;3.67;2.58;;;19.20;84.00;;;;;;5034421;28;20029;-72
2021/07/13 02:29:02;;;;;;;2.53;2.33;;;19.30;84.00;;;;;;5054217;28;20031;-72
2021/07/13 02:31:35;;;;;;;3.05;2.67;;;19.30;83.90;;;;;;5055618;28;20350;-72
2021/07/13 02:34:07;;;;;;;1.80;1.70;;;19.30;83.90;;;;;;5056138;28;20025;-72
2021/07/13 02:36:36;;;;;;;2.15;1.95;;;19.30;83.80;;;;;;5055830;28;20028;-72
2021/07/13 02:39:06;;;;;;;2.92;2.17;;;19.30;83.80;;;;;;5055763;28;20039;-72
2021/07/13 02:41:32;;;;;;;2.42;2.10;;;19.30;83.90;;;;;;5055762;28;20068;-72
2021/07/13 02:43:59;;;;;;;2.85;2.20;;;19.20;83.90;;;;;;5055638;28;20025;-72
2021/07/13 02:46:28;;;;;;;2.33;1.67;;;19.20;84.00;;;;;;5037292;28;20409;-72
2021/07/13 02:48:56;;;;;;;2.20;1.73;;;19.30;84.10;;;;;;5055674;28;20454;-72
2021/07/13 02:51:26;;;;;;;1.95;1.75;;;19.20;83.90;;;;;;5055693;28;20107;-72
2021/07/13 02:53:54;;;;;;;2.92;2.28;;;19.30;83.90;;;;;;5055581;28;20032;-72
2021/07/13 02:56:22;;;;;;;2.85;2.60;;;19.20;83.90;;;;;;5055518;28;20052;-71
2021/07/13 02:58:49;;;;;;;3.38;2.63;;;19.20;83.90;;;;;;5055339;28;20024;-72
2021/07/13 03:01:15;;;;;;;2.38;1.90;;;19.20;84.00;;;;;;5055091;28;20477;-72
2021/07/13 03:03:42;;;;;;;2.92;2.22;;;19.10;84.00;;;;;;5055349;28;20032;-72
2021/07/13 03:06:08;;;;;;;3.15;2.30;;;19.10;84.10;;;;;;5055298;28;20024;-72
2021/07/13 03:08:34;;;;;;;2.83;2.28;;;19.10;84.10;;;;;;5055278;28;20025;-72
2021/07/13 03:11:02;;;;;;;3.20;2.42;;;19.10;84.10;;;;;;5055177;28;20101;-72
2021/07/13 03:13:31;;;;;;;2.95;2.33;;;19.10;84.10;;;;;;5055225;28;20020;-72
2021/07/13 03:15:57;;;;;;;;;;;19.00;84.30;;;;;;5037096;28;20120;-72
2021/07/13 03:18:22;;;;;;;3.30;2.40;;;19.00;84.20;;;;;;5055098;28;19987;-72
2021/07/13 03:20:50;;;;;;;2.53;2.00;;;19.00;84.50;;;;;;5054767;28;20041;-72
2021/07/13 03:23:18;;;;;;;2.90;2.25;;;19.00;84.50;;;;;;5037239;28;20017;-72
2021/07/13 03:25:45;;;;;;;3.00;2.17;;;19.00;84.40;;;;;;5054872;28;20032;-72
2021/07/13 03:28:12;;;;;;;2.55;2.15;;;19.00;84.70;;;;;;5036952;28;20083;-72
2021/07/13 03:30:39;;;;;;;3.10;2.20;;;19.00;84.20;;;;;;5054348;28;20021;-72
2021/07/13 03:33:06;;;;;;;2.88;2.00;;;19.10;84.20;;;;;;5055006;28;20031;-72
2021/07/13 03:35:32;;;;;;;2.22;1.80;;;19.10;84.20;;;;;;5054715;28;20032;-72
2021/07/13 03:37:58;;;;;;;2.30;1.73;;;19.20;84.20;;;;;;5054741;28;20017;-72
2021/07/13 03:40:26;;;;;;;2.80;2.10;;;19.20;84.70;;;;;;5053385;28;20017;-72
2021/07/13 03:42:52;;;;;;;2.40;2.17;;;19.30;84.10;;;;;;5054496;28;20033;-72
2021/07/13 03:45:19;;;;;;;2.60;2.20;;;19.30;84.00;;;;;;5054205;28;20024;-72
2021/07/13 03:47:49;;;;;;;3.60;2.85;;;19.30;84.10;;;;;;5054592;28;20029;-72
2021/07/13 03:50:22;;;;;;;2.88;2.35;;;19.30;84.10;;;;;;5054489;28;20092;-72
2021/07/13 03:52:48;;;;;;;3.67;3.13;;;19.30;84.30;;;;;;5054185;28;20466;-72
2021/07/13 03:55:14;;;;;;;3.63;2.55;;;19.30;84.30;;;;;;5054216;28;20120;-72
2021/07/13 03:57:41;;;;;;;3.05;2.45;;;19.40;84.50;;;;;;5054290;28;20043;-72
2021/07/13 04:00:16;;;;;;;3.47;2.40;;;19.40;84.50;;;;;;5053769;28;20025;-72
2021/07/13 04:02:42;;;;;;;3.42;2.78;;;19.40;84.50;;;;;;5054213;28;20017;-72
2021/07/13 04:05:12;;;;;;;4.78;3.03;;;19.40;84.60;;;;;;5054042;28;20025;-72
2021/07/13 04:07:37;;;;;;;;;;;19.40;84.60;;;;;;5054596;28;20350;-72
2021/07/13 04:10:05;;;;;;;3.38;2.40;;;19.40;84.30;;;;;;5054172;28;19911;-72
2021/07/13 04:12:30;;;;;;;3.95;2.80;;;19.50;84.60;;;;;;5053664;28;20021;-72
2021/07/13 04:14:56;;;;;;;4.50;3.20;;;19.40;84.50;;;;;;5054023;28;20550;-72
2021/07/13 04:17:22;;;;;;;3.70;2.63;;;19.40;84.70;;;;;;5053896;28;20561;-72
2021/07/13 04:19:47;;;;;;;3.38;2.55;;;19.50;84.70;;;;;;5036052;28;20020;-72
2021/07/13 04:22:13;;;;;;;3.35;2.97;;;19.40;84.80;;;;;;5053687;28;20049;-72
2021/07/13 04:24:38;;;;;;;3.30;2.60;;;19.40;84.90;;;;;;5053947;28;20156;-72
2021/07/13 04:27:04;;;;;;;3.53;2.40;;;19.40;84.90;;;;;;5053181;28;20136;-72
2021/07/13 04:29:29;;;;;;;3.53;2.70;;;19.40;85.00;;;;;;5053780;28;20025;-72
2021/07/13 04:31:55;;;;;;;3.22;2.80;;;19.40;85.10;;;;;;5053694;28;20032;-72
2021/07/13 04:34:20;;;;;;;3.90;2.65;;;19.30;85.20;;;;;;5053695;28;20021;-72
2021/07/13 04:36:46;;;;;;;4.03;3.00;;;19.40;85.20;;;;;;5053590;28;20481;-72
2021/07/13 04:39:12;;;;;;;4.35;3.08;;;19.30;85.20;;;;;;5053577;28;20373;-72
2021/07/13 04:41:38;;;;;;;4.70;3.47;;;19.30;85.20;;;;;;5053124;28;20086;-72
2021/07/13 04:44:03;;;;;;;5.93;4.43;;;19.30;85.30;;;;;;5053516;28;20462;-72
2021/07/13 04:46:29;;;;;;;5.13;3.67;;;19.20;85.40;;;;;;5053512;28;20033;-72
2021/07/13 04:48:56;;;;;;;5.25;3.85;;;19.20;85.60;;;;;;5053452;28;20017;-72
2021/07/13 04:51:22;;;;;;;6.43;4.60;;;19.10;85.70;;;;;;5052830;28;20052;-72
2021/07/13 04:53:49;;;;;;;6.00;4.05;;;19.10;85.90;;;;;;5053391;28;20036;-72
2021/07/13 04:56:14;;;;;;;4.05;3.13;;;19.10;85.90;;;;;;5052825;28;20481;-72
2021/07/13 04:58:40;;;;;;;5.05;3.50;;;19.10;85.90;;;;;;5053333;28;20021;-73
2021/07/13 05:01:05;;;;;;;4.75;3.53;;;19.10;85.90;;;;;;5053151;28;20028;-72
2021/07/13 05:03:31;;;;;;;4.70;3.35;;;19.00;85.90;;;;;;5053259;28;20476;-73
2021/07/13 05:05:56;;;;;;;5.55;4.43;;;19.10;86.00;;;;;;5053273;28;20467;-72
2021/07/13 05:08:22;;;;;;;6.05;5.00;;;19.10;85.90;;;;;;5053106;28;20406;-72
2021/07/13 05:10:49;;;;;;;8.32;6.28;;;19.00;85.90;;;;;;5052656;28;20028;-72
2021/07/13 05:13:14;;;;;;;10.30;8.00;;;18.90;86.20;;;;;;5035251;28;20036;-72
2021/07/13 05:15:40;;;;;;;10.02;7.53;;;18.70;86.50;;;;;;5052866;28;20029;-72
2021/07/13 05:18:13;;;;;;;8.98;7.00;;;18.60;86.70;;;;;;5053085;28;20036;-73
2021/07/13 05:20:49;;;;;;;7.40;5.68;;;18.50;86.90;;;;;;5052745;28;20108;-72
2021/07/13 05:23:15;;;;;;;8.38;7.03;;;18.50;87.00;;;;;;5052968;28;20055;-73
2021/07/13 05:25:41;;;;;;;9.27;7.50;;;18.40;87.10;;;;;;5052403;28;20036;-72
2021/07/13 05:28:11;;;;;;;8.57;6.97;;;18.40;87.20;;;;;;5035092;28;20025;-73
2021/07/13 05:30:40;;;;;;;;;;;18.30;87.30;;;;;;5053197;28;20036;-72
2021/07/13 05:33:06;;;;;;;;;;;18.30;87.00;;;;;;5053379;28;19904;-72
2021/07/13 05:35:31;;;;;;;9.73;8.70;;;18.30;86.90;;;;;;5052653;28;20023;-73
2021/07/13 05:37:57;;;;;;;9.23;7.15;;;18.30;87.40;;;;;;5052887;28;20056;-72
2021/07/13 05:40:22;;;;;;;8.80;6.70;;;18.30;87.40;;;;;;5052590;28;20028;-72
2021/07/13 05:42:48;;;;;;;7.10;5.20;;;18.40;87.30;;;;;;5052763;28;20071;-72
2021/07/13 05:45:14;;;;;;;6.38;4.85;;;18.40;87.10;;;;;;5053165;28;20018;-73
2021/07/13 05:47:40;;;;;;;6.72;5.57;;;18.50;87.10;;;;;;5052771;28;20028;-73
2021/07/13 05:50:07;;;;;;;8.55;5.65;;;18.60;86.90;;;;;;5034808;28;20021;-72
2021/07/13 05:52:33;;;;;;;6.38;4.75;;;18.60;86.90;;;;;;5052579;28;20028;-73
2021/07/13 05:54:59;;;;;;;6.50;5.28;;;18.70;87.00;;;;;;5052230;28;20139;-72
2021/07/13 05:57:26;;;;;;;6.20;4.70;;;18.70;86.90;;;;;;5052455;28;20104;-72
2021/07/13 05:59:52;;;;;;;6.05;4.45;;;18.70;87.00;;;;;;5052572;28;20532;-73
2021/07/13 06:02:18;;;;;;;6.82;4.68;;;18.70;87.00;;;;;;5052616;28;20047;-72
2021/07/13 06:04:43;;;;;;;6.82;4.88;;;18.80;87.00;;;;;;5056019;28;20469;-72
2021/07/13 06:07:08;;;;;;;5.43;3.80;;;18.80;87.00;;;;;;5056568;28;20029;-73
2021/07/13 06:09:34;;;;;;;5.97;4.20;;;18.90;87.10;;;;;;5055841;28;20108;-72
2021/07/13 06:12:00;;;;;;;5.13;3.33;;;18.90;87.00;;;;;;5056424;28;20100;-72
2021/07/13 06:14:25;;;;;;;6.85;4.07;;;19.00;86.80;;;;;;5038390;28;20032;-72
2021/07/13 06:16:51;;;;;;;5.30;3.50;;;19.10;86.70;;;;;;5056058;28;20041;-72
2021/07/13 06:19:17;;;;;;;6.05;4.15;;;19.10;86.70;;;;;;5056218;28;20021;-72
2021/07/13 06:21:44;;;;;;;6.40;3.88;;;19.20;86.80;;;;;;5055960;28;20045;-72
2021/07/13 06:24:10;;;;;;;4.80;3.67;;;19.20;86.80;;;;;;5055628;28;20044;-72
2021/07/13 06:26:35;;;;;;;5.93;3.42;;;19.20;86.80;;;;;;5056076;28;20025;-71
2021/07/13 06:29:01;;;;;;;4.47;2.80;;;19.30;86.80;;;;;;5055827;28;20086;-72
2021/07/13 06:31:27;;;;;;;5.00;3.58;;;19.40;86.60;;;;;;5055922;28;20504;-72
2021/07/13 06:33:52;;;;;;;5.55;3.38;;;19.50;86.50;;;;;;5056030;28;20044;-72
2021/07/13 06:36:18;;;;;;;4.85;3.03;;;19.60;86.20;;;;;;5055784;28;20029;-72
2021/07/13 06:38:43;;;;;;;3.83;2.33;;;19.70;86.10;;;;;;5055236;28;20394;-73
2021/07/13 06:41:09;;;;;;;3.83;2.78;;;19.70;86.00;;;;;;5055813;28;20098;-72
2021/07/13 06:43:34;;;;;;;3.30;2.20;;;19.80;86.00;;;;;;5055603;28;20104;-72
2021/07/13 06:46:00;;;;;;;3.83;2.78;;;19.80;85.90;;;;;;5055589;28;20029;-72
2021/07/13 06:48:25;;;;;;;4.82;2.95;;;19.90;85.90;;;;;;5055513;28;20025;-72
2021/07/13 06:50:52;;;;;;;3.50;2.22;;;19.90;85.90;;;;;;5055526;28;20017;-72
2021/07/13 06:53:18;;;;;;;3.78;2.38;;;19.90;85.90;;;;;;5055042;28;20032;-69
2021/07/13 06:55:44;;;;;;;3.08;2.40;;;19.90;86.00;;;;;;5055532;28;20389;-72
2021/07/13 06:58:09;;;;;;;3.92;2.67;;;19.90;86.30;;;;;;5055326;28;20489;-71
2021/07/13 07:00:35;;;;;;;3.97;2.63;;;19.80;86.60;;;;;;5055449;28;20028;-71
2021/07/13 07:03:01;;;;;;;3.42;2.55;;;19.70;86.70;;;;;;5055387;28;20029;-71
2021/07/13 07:05:26;;;;;;;3.45;2.90;;;19.70;86.90;;;;;;5055201;28;20021;-71
2021/07/13 07:07:52;;;;;;;4.22;2.65;;;19.60;87.00;;;;;;5054836;28;20025;-71
2021/07/13 07:10:20;;;;;;;3.60;2.45;;;19.70;87.10;;;;;;5055323;28;20013;-71
2021/07/13 07:12:47;;;;;;;3.50;2.17;;;19.70;87.10;;;;;;5055168;28;20028;-71
2021/07/13 07:15:13;;;;;;;3.67;2.33;;;19.70;87.10;;;;;;5054919;28;20036;-71
2021/07/13 07:17:53;;;;;;;3.33;2.28;;;19.70;87.10;;;;;;5055072;28;20017;-71
2021/07/13 07:20:21;;;;;;;3.05;2.15;;;19.70;87.10;;;;;;5054974;28;20171;-71
2021/07/13 07:22:47;;;;;;;3.03;2.05;;;19.70;87.30;;;;;;5054193;28;20049;-71
2021/07/13 07:25:13;;;;;;;3.83;2.53;;;19.70;87.40;;;;;;5054868;28;20017;-71
2021/07/13 07:27:39;;;;;;;4.32;2.40;;;19.70;87.50;;;;;;5054914;28;20104;-70
2021/07/13 07:30:07;;;;;;;3.97;2.22;;;19.70;87.50;;;;;;5054739;28;20096;-71
2021/07/13 07:32:36;;;;;;;4.90;2.83;;;19.70;87.70;;;;;;5054927;28;20075;-71
2021/07/13 07:35:03;;;;;;;4.22;2.92;;;19.70;87.80;;;;;;5054419;28;20029;-71
2021/07/13 07:37:29;;;;;;;2.88;2.10;;;19.70;88.00;;;;;;5054351;28;20021;-71
2021/07/13 07:39:54;;;;;;;3.58;2.65;;;19.70;88.10;;;;;;5054601;28;20390;-70
2021/07/13 07:42:20;;;;;;;3.10;2.25;;;19.70;88.00;;;;;;5054600;28;20108;-71
2021/07/13 07:44:45;;;;;;;4.72;2.60;;;19.80;87.90;;;;;;5054484;28;20063;-71
2021/07/13 07:47:11;;;;;;;3.75;2.33;;;19.90;87.70;;;;;;5054532;28;20071;-70
2021/07/13 07:49:36;;;;;;;3.53;2.45;;;19.90;87.80;;;;;;5054384;28;20523;-70
2021/07/13 07:52:03;;;;;;;4.03;2.80;;;20.00;87.90;;;;;;5053965;28;20021;-70
2021/07/13 07:54:29;;;;;;;4.47;2.67;;;20.00;87.80;;;;;;5054320;28;20063;-70
2021/07/13 07:56:54;;;;;;;4.38;2.92;;;20.10;87.70;;;;;;5054312;28;20083;-70
2021/07/13 07:59:21;;;;;;;3.53;2.20;;;20.10;87.90;;;;;;5054310;28;20028;-70
2021/07/13 08:01:47;;;;;;;3.70;2.80;;;20.00;88.10;;;;;;5054211;28;20052;-70
2021/07/13 08:04:13;;;;;;;3.50;2.50;;;20.00;88.10;;;;;;5054026;28;20070;-70
2021/07/13 08:06:38;;;;;;;2.95;2.08;;;20.10;88.10;;;;;;5053757;28;20532;-70
2021/07/13 08:09:04;;;;;;;3.60;2.08;;;20.20;88.10;;;;;;5054040;28;20025;-70
2021/07/13 08:11:30;;;;;;;3.70;2.13;;;20.20;87.90;;;;;;5054091;28;20029;-71
2021/07/13 08:14:00;;;;;;;2.83;1.95;;;20.30;88.00;;;;;;5054073;28;20036;-70
2021/07/13 08:16:26;;;;;;;2.70;1.88;;;20.30;88.00;;;;;;5053714;28;20032;-70
2021/07/13 08:18:52;;;;;;;2.97;2.20;;;20.30;88.10;;;;;;5053522;28;20435;-70
2021/07/13 08:21:19;;;;;;;2.42;1.83;;;20.30;88.00;;;;;;5053666;28;20540;-70
2021/07/13 08:23:46;;;;;;;3.08;2.10;;;20.30;88.30;;;;;;5053758;28;20060;-70
2021/07/13 08:26:12;;;;;;;2.58;1.92;;;20.20;88.30;;;;;;5053037;28;20031;-70
2021/07/13 08:28:37;;;;;;;2.45;1.75;;;20.30;88.40;;;;;;5053778;28;20109;-68
2021/07/13 08:31:02;;;;;;;3.60;2.42;;;20.30;88.40;;;;;;5053659;28;20027;-68
2021/07/13 08:33:28;;;;;;;3.05;2.05;;;20.30;88.40;;;;;;5053100;28;20384;-70
2021/07/13 08:35:53;;;;;;;4.57;2.78;;;20.30;88.40;;;;;;5053580;28;20033;-68
2021/07/13 08:38:19;;;;;;;2.65;1.70;;;20.40;88.40;;;;;;5053485;28;20024;-70
2021/07/13 08:40:45;;;;;;;2.92;1.77;;;20.50;88.30;;;;;;5053567;28;20461;-70
2021/07/13 08:43:11;;;;;;;2.72;1.90;;;20.50;88.20;;;;;;5053335;28;20048;-70
2021/07/13 08:45:37;;;;;;;2.85;2.10;;;20.60;88.20;;;;;;5053312;28;20061;-70
2021/07/13 08:48:03;;;;;;;3.97;2.85;;;20.70;88.20;;;;;;5035037;28;20465;-70
2021/07/13 08:50:28;;;;;;;3.10;2.40;;;20.70;88.20;;;;;;5053486;28;20461;-70
2021/07/13 08:52:54;;;;;;;3.80;2.65;;;20.70;88.20;;;;;;5053193;28;20066;-71
2021/07/13 08:55:19;;;;;;;4.10;2.25;;;20.70;88.20;;;;;;5053205;28;20036;-71
2021/07/13 08:57:46;;;;;;;3.03;2.38;;;20.80;88.10;;;;;;5053262;28;20022;-71
2021/07/13 09:00:16;;;;;;;3.25;2.50;;;20.80;88.10;;;;;;5053390;28;20021;-71
2021/07/13 09:03:20;;;;;;;4.15;2.67;;;20.90;88.20;;;;;;5052808;28;20355;-71
2021/07/13 09:05:46;;;;;;;3.45;2.40;;;20.90;88.20;;;;;;5053116;28;20382;-71
2021/07/13 09:08:18;;;;;;;3.85;2.47;;;20.90;88.40;;;;;;5053114;28;20422;-71
2021/07/13 09:11:11;;;;;;;2.83;2.10;;;21.00;88.50;;;;;;5053108;28;20031;-71
2021/07/13 09:13:42;;;;;;;2.75;2.33;;;21.10;88.20;;;;;;5053291;28;20025;-71
2021/07/13 09:16:11;;;;;;;3.35;2.15;;;21.20;88.20;;;;;;5052892;28;20453;-71
2021/07/13 09:18:56;;;;;;;3.47;2.65;;;21.40;88.00;;;;;;5052733;28;20031;-71
2021/07/13 09:21:27;;;;;;;3.10;2.17;;;21.50;87.60;;;;;;5052764;28;20375;-71
2021/07/13 09:24:16;;;;;;;3.83;2.58;;;21.60;87.50;;;;;;5053195;28;20052;-71
2021/07/13 09:26:52;;;;;;;2.78;2.15;;;21.50;87.90;;;;;;5053078;28;20021;-72
2021/07/13 09:29:33;;;;;;;2.90;2.15;;;21.50;88.10;;;;;;5052909;28;20523;-74
2021/07/13 09:32:26;;;;;;;2.83;2.20;;;21.60;88.10;;;;;;5052612;28;20036;-73
2021/07/13 09:35:09;;;;;;;2.28;2.08;;;21.50;88.10;;;;;;5052996;28;20580;-73
2021/07/13 09:37:38;;;;;;;3.35;2.17;;;21.50;88.20;;;;;;5054288;28;20032;-73
2021/07/13 09:40:19;;;;;;;3.03;2.10;;;21.50;88.40;;;;;;5056781;28;20017;-73
2021/07/13 09:42:53;;;;;;;3.65;2.42;;;21.60;88.20;;;;;;5056889;28;20121;-73
2021/07/13 09:45:24;;;;;;;3.80;3.08;;;21.70;88.20;;;;;;5056765;28;20385;-72
2021/07/13 09:47:52;;;;;;;3.20;2.60;;;21.60;88.20;;;;;;5056507;28;20021;-73
2021/07/13 09:50:36;;;;;;;4.15;2.60;;;21.50;88.60;;;;;;5056737;28;20022;-72
2021/07/13 09:53:03;;;;;;;4.57;3.55;;;21.60;88.60;;;;;;5056623;28;20489;-72
2021/07/13 09:55:29;;;;;;;5.05;3.70;;;21.50;88.50;;;;;;5056599;28;20037;-72
2021/07/13 09:58:08;;;;;;;4.68;3.33;;;21.40;89.40;;;;;;5056814;28;20580;-73
2021/07/13 10:00:33;;;;;;;4.03;3.05;;;21.40;88.90;;;;;;5056161;28;20424;-73
2021/07/13 10:03:00;;;;;;;4.55;2.92;;;21.40;88.70;;;;;;5056476;28;20477;-73
2021/07/13 10:05:27;;;;;;;3.30;2.65;;;21.50;88.50;;;;;;5056477;28;20023;-73
2021/07/13 10:07:53;;;;;;;2.92;2.20;;;21.60;88.30;;;;;;5038430;28;20033;-73
2021/07/13 10:10:21;;;;;;;2.38;2.15;;;21.70;88.20;;;;;;5056322;28;20017;-73
2021/07/13 10:12:48;;;;;;;4.72;2.97;;;21.70;88.20;;;;;;5056259;28;20036;-73
2021/07/13 10:15:13;;;;;;;4.18;2.75;;;21.70;88.10;;;;;;5055667;28;20377;-73
2021/07/13 10:17:40;;;;;;;4.70;3.63;;;21.70;88.20;;;;;;5056291;28;20021;-73
2021/07/13 10:20:07;;;;;;;4.75;3.78;;;21.70;88.20;;;;;;5056116;28;20382;-72
2021/07/13 10:22:35;;;;;;;5.80;4.03;;;21.60;88.30;;;;;;5055937;28;20045;-72
2021/07/13 10:25:03;;;;;;;4.70;3.83;;;21.50;88.60;;;;;;5055887;28;20415;-72
2021/07/13 10:27:36;;;;;;;5.32;3.50;;;21.40;88.60;;;;;;5056254;28;20381;-73
2021/07/13 10:30:09;;;;;;;2.92;2.35;;;21.50;88.50;;;;;;5055609;28;20025;-73
2021/07/13 10:32:35;;;;;;;4.13;2.85;;;21.60;88.50;;;;;;5056028;28;20025;-73
2021/07/13 10:35:17;;;;;;;2.80;2.10;;;21.60;88.20;;;;;;5055740;28;20434;-72
2021/07/13 10:37:45;;;;;;;3.10;2.38;;;21.80;88.10;;;;;;5055868;28;20075;-73
2021/07/13 10:40:36;;;;;;;3.60;2.93;;;21.90;87.90;;;;;;5056041;28;20473;-72
2021/07/13 10:43:14;;;;;;;4.32;2.85;;;21.90;87.60;;;;;;5046168;28;20043;-73
2021/07/13 10:45:42;;;;;;;4.80;3.30;;;21.90;87.80;;;;;;5055303;28;20025;-73
2021/07/13 10:48:20;;;;;;;4.63;2.75;;;21.80;88.00;;;;;;5055648;28;20108;-73
2021/07/13 10:50:52;;;;;;;4.72;2.90;;;21.70;88.00;;;;;;5055030;28;20025;-73
2021/07/13 10:53:42;;;;;;;4.78;3.28;;;21.70;88.10;;;;;;5055426;28;20021;-73
2021/07/13 10:56:14;;;;;;;4.28;3.03;;;21.70;88.00;;;;;;5055453;28;20036;-73
2021/07/13 10:58:50;;;;;;;4.10;2.92;;;21.70;88.20;;;;;;5054889;28;20044;-73
2021/07/13 11:01:20;;;;;;;4.78;3.35;;;21.80;88.00;;;;;;5055429;28;20063;-72
2021/07/13 11:03:46;;;;;;;7.95;5.55;;;21.80;87.90;;;;;;5055293;28;20021;-73
2021/07/13 11:06:16;;;;;;;7.65;4.47;;;21.80;87.80;;;;;;5055309;28;20082;-73
2021/07/13 11:08:42;;;;;;;5.32;3.58;;;21.80;88.00;;;;;;5055363;28;20090;-73
2021/07/13 11:11:08;;;;;;;4.50;2.97;;;21.90;87.80;;;;;;5055267;28;20381;-74
2021/07/13 11:13:34;;;;;;;5.50;3.83;;;22.10;87.60;;;;;;5054747;28;20131;-74
2021/07/13 11:16:00;;;;;;;5.90;4.13;;;22.30;87.10;;;;;;5054996;28;20045;-73
2021/07/13 11:18:35;;;;;;;4.40;3.90;;;22.30;87.20;;;;;;5055111;28;20043;-73
2021/07/13 11:21:21;;;;;;;5.95;4.07;;;22.30;87.20;;;;;;5054841;28;20024;-73
2021/07/13 11:23:50;;;;;;;4.88;4.15;;;22.20;87.40;;;;;;5054974;28;20481;-73
2021/07/13 11:26:17;;;;;;;4.43;3.10;;;22.10;87.70;;;;;;5055065;28;20029;-74
2021/07/13 11:28:51;;;;;;;4.93;3.28;;;22.00;87.90;;;;;;5054537;28;20028;-73
2021/07/13 11:31:24;;;;;;;3.83;2.80;;;22.00;87.80;;;;;;5054833;28;20043;-73
2021/07/13 11:33:58;;;;;;;3.55;2.55;;;22.10;87.90;;;;;;5054792;28;20036;-73
2021/07/13 11:36:27;;;;;;;5.03;3.40;;;22.10;87.70;;;;;;5054674;28;20465;-73
2021/07/13 11:38:54;;;;;;;4.38;3.05;;;22.20;87.80;;;;;;5054689;28;20066;-73
2021/07/13 11:41:20;;;;;;;4.05;3.40;;;22.10;87.60;;;;;;5054669;28;20469;-73
2021/07/13 11:43:51;;;;;;;5.30;3.63;;;22.20;87.80;;;;;;5036163;28;20429;-72
2021/07/13 11:46:19;;;;;;;5.32;3.08;;;22.30;87.50;;;;;;5054723;28;20544;-73
2021/07/13 11:49:01;;;;;;;5.03;3.60;;;22.40;87.50;;;;;;5054495;28;20082;-73
2021/07/13 11:51:46;;;;;;;5.55;3.42;;;22.40;87.30;;;;;;5054429;28;20028;-73
2021/07/13 11:54:15;;;;;;;6.15;4.38;;;22.40;87.40;;;;;;5036603;28;20048;-73
2021/07/13 11:56:46;;;;;;;8.65;5.82;;;22.30;87.40;;;;;;5053947;28;20029;-74
2021/07/13 11:59:14;;;;;;;7.03;5.45;;;22.20;87.60;;;;;;5054295;28;20497;-73
2021/07/13 12:01:42;;;;;;;5.88;4.55;;;22.10;87.80;;;;;;5035380;28;20021;-73
2021/07/13 12:04:09;;;;;;;6.70;5.15;;;22.10;87.90;;;;;;5054286;28;20021;-73
2021/07/13 12:06:37;;;;;;;5.32;4.25;;;22.10;87.90;;;;;;5054081;28;20474;-73
2021/07/13 12:09:14;;;;;;;5.43;3.85;;;22.20;87.80;;;;;;5054002;28;20090;-73
2021/07/13 12:11:44;;;;;;;5.40;4.18;;;22.30;87.60;;;;;;5053653;28;20096;-73
2021/07/13 12:14:11;;;;;;;5.22;4.07;;;22.30;87.60;;;;;;5053975;28;20032;-74
2021/07/13 12:16:37;;;;;;;6.53;4.38;;;22.30;87.40;;;;;;5053866;28;20489;-73
2021/07/13 12:19:27;;;;;;;5.38;4.18;;;22.50;87.70;;;;;;5053802;28;20021;-73
2021/07/13 12:22:02;;;;;;;5.32;4.05;;;22.60;87.00;;;;;;5066668;27;1872531;-74
2021/07/13 12:24:37;;;;;;;5.05;4.55;;;22.60;86.90;;;;;;5111018;28;20118;-74
2021/07/13 12:27:08;;;;;;;5.53;3.58;;;22.60;86.90;;;;;;5110694;28;20032;-74
2021/07/13 12:29:35;;;;;;;4.00;3.13;;;22.80;86.90;;;;;;5111034;28;20023;-74
2021/07/13 12:32:03;;;;;;;3.15;2.78;;;22.90;86.80;;;;;;5111002;28;20027;-74
2021/07/13 12:34:30;;;;;;;5.45;3.58;;;22.90;86.60;;;;;;5110763;28;20042;-74
2021/07/13 12:37:08;;;;;;;3.58;2.72;;;23.00;86.80;;;;;;5110757;28;20074;-74
2021/07/13 12:39:35;;;;;;;6.57;4.90;;;23.00;86.80;;;;;;5110674;28;20035;-73
2021/07/13 12:42:21;;;;;;;6.88;4.65;;;22.90;86.80;;;;;;5091949;28;20380;-74
2021/07/13 12:44:55;;;;;;;5.63;4.20;;;22.80;87.10;;;;;;5110759;28;20524;-73
2021/07/13 12:47:28;;;;;;;7.25;4.80;;;22.60;87.40;;;;;;5110632;28;20031;-73
2021/07/13 12:50:03;;;;;;;8.13;6.35;;;22.60;87.50;;;;;;5110566;28;20028;-72
2021/07/13 12:52:33;;;;;;;7.32;5.40;;;22.50;87.50;;;;;;5110531;28;20026;-73
2021/07/13 12:55:01;;;;;;;7.30;5.68;;;22.50;87.70;;;;;;5109971;28;20114;-73
2021/07/13 12:57:31;;;;;;;5.28;3.97;;;22.50;87.70;;;;;;5110423;28;20102;-73